sensor_id;sensor_type;location;lat;lon;timestamp;temperature;humidity
30288;DHT22;17103;48.316;11.558;2022-07-11T00:01:11;20.40;36.40
30288;DHT22;17103;48.316;11.558;2022-07-11T00:03:40;20.30;35.90
30288;DHT22;17103;48.316;11.558;2022-07-11T00:06:06;20.30;36.10
30288;DHT22;17103;48.316;11.558;2022-07-11T00:08:31;20.30;36.10
30288;DHT22;17103;48.316;11.558;2022-07-11T00:10:57;20.20;36.10
30288;DHT22;17103;48.316;11.558;2022-07-11T00:13:23;20.20;35.80
30288;DHT22;17103;48.316;11.558;2022-07-11T00:15:49;20.10;36.00
30288;DHT22;17103;48.316;11.558;2022-07-11T00:18:15;20.10;36.30
30288;DHT22;17103;48.316;11.558;2022-07-11T00:20:41;20.10;36.30
30288;DHT22;17103;48.316;11.558;2022-07-11T00:23:06;20.00;36.30
30288;DHT22;17103;48.316;11.558;2022-07-11T00:25:32;20.00;36.40
30288;DHT22;17103;48.316;11.558;2022-07-11T00:27:59;19.90;36.30
30288;DHT22;17103;48.316;11.558;2022-07-11T00:30:24;19.90;36.50
30288;DHT22;17103;48.316;11.558;2022-07-11T00:32:50;19.90;36.40
30288;DHT22;17103;48.316;11.558;2022-07-11T00:35:17;19.80;36.40
30288;DHT22;17103;48.316;11.558;2022-07-11T00:37:42;19.80;36.60
30288;DHT22;17103;48.316;11.558;2022-07-11T00:40:08;19.70;36.50
30288;DHT22;17103;48.316;11.558;2022-07-11T00:42:34;19.70;36.70
30288;DHT22;17103;48.316;11.558;2022-07-11T00:45:01;19.60;36.80
30288;DHT22;17103;48.316;11.558;2022-07-11T00:47:27;19.60;36.90
30288;DHT22;17103;48.316;11.558;2022-07-11T00:49:52;19.50;36.90
30288;DHT22;17103;48.316;11.558;2022-07-11T00:52:19;19.50;37.20
30288;DHT22;17103;48.316;11.558;2022-07-11T00:54:46;19.50;37.30
30288;DHT22;17103;48.316;11.558;2022-07-11T00:57:13;19.70;37.50
30288;DHT22;17103;48.316;11.558;2022-07-11T00:59:39;19.40;37.50
30288;DHT22;17103;48.316;11.558;2022-07-11T01:02:04;19.40;37.50
30288;DHT22;17103;48.316;11.558;2022-07-11T01:04:31;19.40;37.60
30288;DHT22;17103;48.316;11.558;2022-07-11T01:06:58;19.40;37.70
30288;DHT22;17103;48.316;11.558;2022-07-11T01:09:25;19.30;37.90
30288;DHT22;17103;48.316;11.558;2022-07-11T01:11:55;19.30;38.00
30288;DHT22;17103;48.316;11.558;2022-07-11T01:14:21;19.30;38.20
30288;DHT22;17103;48.316;11.558;2022-07-11T01:16:50;19.30;38.20
30288;DHT22;17103;48.316;11.558;2022-07-11T01:19:21;19.30;38.30
30288;DHT22;17103;48.316;11.558;2022-07-11T01:21:56;19.20;38.60
30288;DHT22;17103;48.316;11.558;2022-07-11T01:24:25;19.10;38.70
30288;DHT22;17103;48.316;11.558;2022-07-11T01:26:51;19.10;38.50
30288;DHT22;17103;48.316;11.558;2022-07-11T01:29:18;19.00;38.50
30288;DHT22;17103;48.316;11.558;2022-07-11T01:31:44;19.00;38.60
30288;DHT22;17103;48.316;11.558;2022-07-11T01:34:11;19.00;38.70
30288;DHT22;17103;48.316;11.558;2022-07-11T01:36:37;18.90;39.00
30288;DHT22;17103;48.316;11.558;2022-07-11T01:39:03;18.90;39.00
30288;DHT22;17103;48.316;11.558;2022-07-11T01:41:29;18.90;38.70
30288;DHT22;17103;48.316;11.558;2022-07-11T01:43:57;18.90;38.90
30288;DHT22;17103;48.316;11.558;2022-07-11T01:46:22;18.80;39.00
30288;DHT22;17103;48.316;11.558;2022-07-11T01:48:48;18.80;38.90
30288;DHT22;17103;48.316;11.558;2022-07-11T01:51:14;18.80;39.00
30288;DHT22;17103;48.316;11.558;2022-07-11T01:53:40;18.80;38.90
30288;DHT22;17103;48.316;11.558;2022-07-11T01:56:05;18.90;38.90
30288;DHT22;17103;48.316;11.558;2022-07-11T01:58:31;18.90;38.90
30288;DHT22;17103;48.316;11.558;2022-07-11T02:00:58;18.90;38.70
30288;DHT22;17103;48.316;11.558;2022-07-11T02:03:25;18.80;38.70
30288;DHT22;17103;48.316;11.558;2022-07-11T02:05:51;18.80;38.80
30288;DHT22;17103;48.316;11.558;2022-07-11T02:08:17;18.80;38.70
30288;DHT22;17103;48.316;11.558;2022-07-11T02:10:48;18.80;39.20
30288;DHT22;17103;48.316;11.558;2022-07-11T02:13:25;19.10;38.90
30288;DHT22;17103;48.316;11.558;2022-07-11T02:15:51;18.90;38.60
30288;DHT22;17103;48.316;11.558;2022-07-11T02:18:19;18.90;38.60
30288;DHT22;17103;48.316;11.558;2022-07-11T02:20:47;18.70;38.50
30288;DHT22;17103;48.316;11.558;2022-07-11T02:23:18;18.90;38.50
30288;DHT22;17103;48.316;11.558;2022-07-11T02:25:44;18.90;38.40
30288;DHT22;17103;48.316;11.558;2022-07-11T02:28:12;18.90;38.40
30288;DHT22;17103;48.316;11.558;2022-07-11T02:30:38;18.80;38.50
30288;DHT22;17103;48.316;11.558;2022-07-11T02:33:05;18.80;38.60
30288;DHT22;17103;48.316;11.558;2022-07-11T02:35:34;18.80;38.80
30288;DHT22;17103;48.316;11.558;2022-07-11T02:38:01;18.70;38.90
30288;DHT22;17103;48.316;11.558;2022-07-11T02:40:28;18.70;38.90
30288;DHT22;17103;48.316;11.558;2022-07-11T02:43:00;18.60;38.90
30288;DHT22;17103;48.316;11.558;2022-07-11T02:45:31;18.60;39.10
30288;DHT22;17103;48.316;11.558;2022-07-11T02:47:57;18.60;39.20
30288;DHT22;17103;48.316;11.558;2022-07-11T02:50:23;18.60;39.00
30288;DHT22;17103;48.316;11.558;2022-07-11T02:52:49;18.60;39.10
30288;DHT22;17103;48.316;11.558;2022-07-11T02:55:15;18.60;39.30
30288;DHT22;17103;48.316;11.558;2022-07-11T02:57:41;18.60;39.20
30288;DHT22;17103;48.316;11.558;2022-07-11T03:00:13;18.60;39.20
30288;DHT22;17103;48.316;11.558;2022-07-11T03:02:42;18.50;39.10
30288;DHT22;17103;48.316;11.558;2022-07-11T03:05:11;18.50;39.20
30288;DHT22;17103;48.316;11.558;2022-07-11T03:07:38;18.50;39.40
30288;DHT22;17103;48.316;11.558;2022-07-11T03:10:04;18.50;39.20
30288;DHT22;17103;48.316;11.558;2022-07-11T03:12:30;18.50;39.20
30288;DHT22;17103;48.316;11.558;2022-07-11T03:14:56;18.50;39.20
30288;DHT22;17103;48.316;11.558;2022-07-11T03:17:23;18.40;39.20
30288;DHT22;17103;48.316;11.558;2022-07-11T03:19:49;18.40;39.40
30288;DHT22;17103;48.316;11.558;2022-07-11T03:22:16;18.40;39.40
30288;DHT22;17103;48.316;11.558;2022-07-11T03:24:42;18.40;39.40
30288;DHT22;17103;48.316;11.558;2022-07-11T03:27:08;18.40;39.40
30288;DHT22;17103;48.316;11.558;2022-07-11T03:29:34;18.40;39.40
30288;DHT22;17103;48.316;11.558;2022-07-11T03:32:02;18.40;39.40
30288;DHT22;17103;48.316;11.558;2022-07-11T03:34:29;18.30;39.40
30288;DHT22;17103;48.316;11.558;2022-07-11T03:36:54;18.30;39.50
30288;DHT22;17103;48.316;11.558;2022-07-11T03:39:20;18.30;39.40
30288;DHT22;17103;48.316;11.558;2022-07-11T03:41:47;18.30;39.40
30288;DHT22;17103;48.316;11.558;2022-07-11T03:44:14;18.40;39.70
30288;DHT22;17103;48.316;11.558;2022-07-11T03:46:39;18.20;39.60
30288;DHT22;17103;48.316;11.558;2022-07-11T03:49:05;18.20;39.50
30288;DHT22;17103;48.316;11.558;2022-07-11T03:51:32;18.20;39.50
30288;DHT22;17103;48.316;11.558;2022-07-11T03:54:00;18.20;39.60
30288;DHT22;17103;48.316;11.558;2022-07-11T03:56:26;18.20;39.70
30288;DHT22;17103;48.316;11.558;2022-07-11T03:58:52;18.20;39.60
30288;DHT22;17103;48.316;11.558;2022-07-11T04:01:18;18.20;39.70
30288;DHT22;17103;48.316;11.558;2022-07-11T04:03:45;18.20;39.80
30288;DHT22;17103;48.316;11.558;2022-07-11T04:06:14;18.30;39.80
30288;DHT22;17103;48.316;11.558;2022-07-11T04:08:41;18.30;39.80
30288;DHT22;17103;48.316;11.558;2022-07-11T04:11:07;18.30;39.80
30288;DHT22;17103;48.316;11.558;2022-07-11T04:13:33;18.30;39.70
30288;DHT22;17103;48.316;11.558;2022-07-11T04:15:59;18.40;39.60
30288;DHT22;17103;48.316;11.558;2022-07-11T04:18:25;18.40;39.50
30288;DHT22;17103;48.316;11.558;2022-07-11T04:20:50;18.40;39.30
30288;DHT22;17103;48.316;11.558;2022-07-11T04:23:16;18.40;39.50
30288;DHT22;17103;48.316;11.558;2022-07-11T04:25:42;18.40;39.50
30288;DHT22;17103;48.316;11.558;2022-07-11T04:28:08;18.40;39.60
30288;DHT22;17103;48.316;11.558;2022-07-11T04:30:34;18.30;39.60
30288;DHT22;17103;48.316;11.558;2022-07-11T04:33:00;18.30;39.50
30288;DHT22;17103;48.316;11.558;2022-07-11T04:35:29;18.30;39.70
30288;DHT22;17103;48.316;11.558;2022-07-11T04:37:56;18.20;39.80
30288;DHT22;17103;48.316;11.558;2022-07-11T04:40:23;18.20;39.80
30288;DHT22;17103;48.316;11.558;2022-07-11T04:42:50;18.20;39.70
30288;DHT22;17103;48.316;11.558;2022-07-11T04:45:15;18.10;39.70
30288;DHT22;17103;48.316;11.558;2022-07-11T04:47:41;18.10;39.50
30288;DHT22;17103;48.316;11.558;2022-07-11T04:50:08;18.10;39.70
30288;DHT22;17103;48.316;11.558;2022-07-11T04:52:34;18.10;39.70
30288;DHT22;17103;48.316;11.558;2022-07-11T04:55:00;18.10;39.80
30288;DHT22;17103;48.316;11.558;2022-07-11T04:57:26;18.10;39.70
30288;DHT22;17103;48.316;11.558;2022-07-11T04:59:52;18.10;40.00
30288;DHT22;17103;48.316;11.558;2022-07-11T05:02:18;18.10;39.90
30288;DHT22;17103;48.316;11.558;2022-07-11T05:04:44;18.10;39.70
30288;DHT22;17103;48.316;11.558;2022-07-11T05:07:13;18.10;39.70
30288;DHT22;17103;48.316;11.558;2022-07-11T05:09:40;18.00;39.80
30288;DHT22;17103;48.316;11.558;2022-07-11T05:12:06;18.00;40.00
30288;DHT22;17103;48.316;11.558;2022-07-11T05:14:32;18.00;40.00
30288;DHT22;17103;48.316;11.558;2022-07-11T05:16:58;17.90;39.70
30288;DHT22;17103;48.316;11.558;2022-07-11T05:19:24;17.90;40.00
30288;DHT22;17103;48.316;11.558;2022-07-11T05:21:49;17.80;40.00
30288;DHT22;17103;48.316;11.558;2022-07-11T05:24:18;17.70;40.10
30288;DHT22;17103;48.316;11.558;2022-07-11T05:26:44;17.70;40.50
30288;DHT22;17103;48.316;11.558;2022-07-11T05:29:12;17.60;40.60
30288;DHT22;17103;48.316;11.558;2022-07-11T05:31:39;17.60;40.70
30288;DHT22;17103;48.316;11.558;2022-07-11T05:34:05;17.50;40.90
30288;DHT22;17103;48.316;11.558;2022-07-11T05:36:33;17.50;41.00
30288;DHT22;17103;48.316;11.558;2022-07-11T05:38:58;17.40;41.10
30288;DHT22;17103;48.316;11.558;2022-07-11T05:41:24;17.40;41.30
30288;DHT22;17103;48.316;11.558;2022-07-11T05:43:59;17.40;41.20
30288;DHT22;17103;48.316;11.558;2022-07-11T05:46:27;17.30;41.70
30288;DHT22;17103;48.316;11.558;2022-07-11T05:48:52;17.30;41.60
30288;DHT22;17103;48.316;11.558;2022-07-11T05:51:18;17.30;41.70
30288;DHT22;17103;48.316;11.558;2022-07-11T05:53:44;17.30;42.20
30288;DHT22;17103;48.316;11.558;2022-07-11T05:56:11;17.20;42.10
30288;DHT22;17103;48.316;11.558;2022-07-11T05:58:39;17.20;42.50
30288;DHT22;17103;48.316;11.558;2022-07-11T06:01:05;17.20;42.50
30288;DHT22;17103;48.316;11.558;2022-07-11T06:03:30;17.20;42.90
30288;DHT22;17103;48.316;11.558;2022-07-11T06:05:58;17.20;42.90
30288;DHT22;17103;48.316;11.558;2022-07-11T06:08:24;17.20;42.80
30288;DHT22;17103;48.316;11.558;2022-07-11T06:11:12;17.20;43.00
30288;DHT22;17103;48.316;11.558;2022-07-11T06:13:40;17.20;43.80
30288;DHT22;17103;48.316;11.558;2022-07-11T06:16:07;17.20;43.80
30288;DHT22;17103;48.316;11.558;2022-07-11T06:18:35;17.30;43.90
30288;DHT22;17103;48.316;11.558;2022-07-11T06:21:01;17.30;44.20
30288;DHT22;17103;48.316;11.558;2022-07-11T06:23:27;17.40;44.10
30288;DHT22;17103;48.316;11.558;2022-07-11T06:25:55;17.40;44.10
30288;DHT22;17103;48.316;11.558;2022-07-11T06:28:21;17.50;44.30
30288;DHT22;17103;48.316;11.558;2022-07-11T06:30:49;17.50;44.10
30288;DHT22;17103;48.316;11.558;2022-07-11T06:33:18;17.50;44.00
30288;DHT22;17103;48.316;11.558;2022-07-11T06:35:45;17.60;44.00
30288;DHT22;17103;48.316;11.558;2022-07-11T06:38:12;17.60;44.00
30288;DHT22;17103;48.316;11.558;2022-07-11T06:40:41;17.70;44.00
30288;DHT22;17103;48.316;11.558;2022-07-11T06:43:09;17.70;44.00
30288;DHT22;17103;48.316;11.558;2022-07-11T06:45:36;17.80;44.10
30288;DHT22;17103;48.316;11.558;2022-07-11T06:48:04;17.80;44.20
30288;DHT22;17103;48.316;11.558;2022-07-11T06:50:36;17.90;43.80
30288;DHT22;17103;48.316;11.558;2022-07-11T06:53:05;17.60;43.80
30288;DHT22;17103;48.316;11.558;2022-07-11T06:55:33;18.10;43.90
30288;DHT22;17103;48.316;11.558;2022-07-11T06:58:00;18.10;44.20
30288;DHT22;17103;48.316;11.558;2022-07-11T07:00:26;18.20;44.20
30288;DHT22;17103;48.316;11.558;2022-07-11T07:02:55;18.30;44.30
30288;DHT22;17103;48.316;11.558;2022-07-11T07:05:23;18.40;44.40
30288;DHT22;17103;48.316;11.558;2022-07-11T07:07:51;18.50;44.30
30288;DHT22;17103;48.316;11.558;2022-07-11T07:10:17;18.60;44.40
30288;DHT22;17103;48.316;11.558;2022-07-11T07:12:43;18.60;44.40
30288;DHT22;17103;48.316;11.558;2022-07-11T07:15:12;18.70;44.50
30288;DHT22;17103;48.316;11.558;2022-07-11T07:17:38;18.80;44.50
30288;DHT22;17103;48.316;11.558;2022-07-11T07:20:05;18.90;44.30
30288;DHT22;17103;48.316;11.558;2022-07-11T07:22:34;19.00;44.20
30288;DHT22;17103;48.316;11.558;2022-07-11T07:25:00;19.00;43.90
30288;DHT22;17103;48.316;11.558;2022-07-11T07:27:26;19.10;43.50
30288;DHT22;17103;48.316;11.558;2022-07-11T07:29:54;19.20;43.40
30288;DHT22;17103;48.316;11.558;2022-07-11T07:32:20;19.20;42.90
30288;DHT22;17103;48.316;11.558;2022-07-11T07:34:45;19.30;43.00
30288;DHT22;17103;48.316;11.558;2022-07-11T07:37:11;19.40;43.10
30288;DHT22;17103;48.316;11.558;2022-07-11T07:39:37;19.40;43.00
30288;DHT22;17103;48.316;11.558;2022-07-11T07:42:03;19.40;42.90
30288;DHT22;17103;48.316;11.558;2022-07-11T07:44:29;19.50;43.20
30288;DHT22;17103;48.316;11.558;2022-07-11T07:46:54;19.50;42.90
30288;DHT22;17103;48.316;11.558;2022-07-11T07:49:20;19.60;43.00
30288;DHT22;17103;48.316;11.558;2022-07-11T07:51:47;19.70;43.10
30288;DHT22;17103;48.316;11.558;2022-07-11T07:54:12;19.70;42.70
30288;DHT22;17103;48.316;11.558;2022-07-11T07:56:39;19.80;42.50
30288;DHT22;17103;48.316;11.558;2022-07-11T07:59:04;19.90;42.40
30288;DHT22;17103;48.316;11.558;2022-07-11T08:01:32;20.00;42.30
30288;DHT22;17103;48.316;11.558;2022-07-11T08:04:06;20.00;41.90
30288;DHT22;17103;48.316;11.558;2022-07-11T08:06:33;20.00;41.90
30288;DHT22;17103;48.316;11.558;2022-07-11T08:09:00;20.10;42.30
30288;DHT22;17103;48.316;11.558;2022-07-11T08:11:27;20.10;42.50
30288;DHT22;17103;48.316;11.558;2022-07-11T08:14:01;20.20;41.90
30288;DHT22;17103;48.316;11.558;2022-07-11T08:16:33;20.30;41.90
30288;DHT22;17103;48.316;11.558;2022-07-11T08:19:01;20.40;41.70
30288;DHT22;17103;48.316;11.558;2022-07-11T08:21:28;20.40;41.80
30288;DHT22;17103;48.316;11.558;2022-07-11T08:23:54;20.50;41.60
30288;DHT22;17103;48.316;11.558;2022-07-11T08:26:20;20.50;41.80
30288;DHT22;17103;48.316;11.558;2022-07-11T08:28:46;20.60;41.90
30288;DHT22;17103;48.316;11.558;2022-07-11T08:31:13;20.60;42.20
30288;DHT22;17103;48.316;11.558;2022-07-11T08:33:38;20.70;42.20
30288;DHT22;17103;48.316;11.558;2022-07-11T08:36:12;20.70;41.90
30288;DHT22;17103;48.316;11.558;2022-07-11T08:38:38;20.70;41.80
30288;DHT22;17103;48.316;11.558;2022-07-11T08:41:11;20.80;41.90
30288;DHT22;17103;48.316;11.558;2022-07-11T08:43:37;20.80;42.20
30288;DHT22;17103;48.316;11.558;2022-07-11T08:46:05;20.90;42.20
30288;DHT22;17103;48.316;11.558;2022-07-11T08:48:32;20.90;42.00
30288;DHT22;17103;48.316;11.558;2022-07-11T08:50:59;20.90;41.80
30288;DHT22;17103;48.316;11.558;2022-07-11T08:53:26;21.00;42.00
30288;DHT22;17103;48.316;11.558;2022-07-11T08:55:54;21.00;41.80
30288;DHT22;17103;48.316;11.558;2022-07-11T08:58:20;21.10;41.70
30288;DHT22;17103;48.316;11.558;2022-07-11T09:00:47;21.10;41.50
30288;DHT22;17103;48.316;11.558;2022-07-11T09:03:15;21.10;41.10
30288;DHT22;17103;48.316;11.558;2022-07-11T09:05:44;21.20;41.40
30288;DHT22;17103;48.316;11.558;2022-07-11T09:08:10;21.30;41.70
30288;DHT22;17103;48.316;11.558;2022-07-11T09:10:39;21.30;41.60
30288;DHT22;17103;48.316;11.558;2022-07-11T09:13:10;21.30;41.40
30288;DHT22;17103;48.316;11.558;2022-07-11T09:15:39;21.40;41.20
30288;DHT22;17103;48.316;11.558;2022-07-11T09:20:56;21.40;40.50
30288;DHT22;17103;48.316;11.558;2022-07-11T09:23:42;21.40;40.50
30288;DHT22;17103;48.316;11.558;2022-07-11T09:26:32;21.30;40.30
30288;DHT22;17103;48.316;11.558;2022-07-11T09:29:03;21.30;40.50
30288;DHT22;17103;48.316;11.558;2022-07-11T09:31:30;21.30;40.70
30288;DHT22;17103;48.316;11.558;2022-07-11T09:36:36;21.30;41.40
30288;DHT22;17103;48.316;11.558;2022-07-11T09:39:07;21.30;41.00
30288;DHT22;17103;48.316;11.558;2022-07-11T09:41:33;21.30;41.00
30288;DHT22;17103;48.316;11.558;2022-07-11T09:46:43;21.40;40.50
30288;DHT22;17103;48.316;11.558;2022-07-11T09:49:10;21.50;40.60
30288;DHT22;17103;48.316;11.558;2022-07-11T09:51:37;21.50;40.40
30288;DHT22;17103;48.316;11.558;2022-07-11T09:54:04;21.60;40.50
30288;DHT22;17103;48.316;11.558;2022-07-11T09:56:37;21.70;40.50
30288;DHT22;17103;48.316;11.558;2022-07-11T09:59:06;21.70;40.40
30288;DHT22;17103;48.316;11.558;2022-07-11T10:01:32;21.80;40.60
30288;DHT22;17103;48.316;11.558;2022-07-11T10:03:58;21.80;40.40
30288;DHT22;17103;48.316;11.558;2022-07-11T10:06:25;21.90;39.80
30288;DHT22;17103;48.316;11.558;2022-07-11T10:08:52;21.90;39.70
30288;DHT22;17103;48.316;11.558;2022-07-11T10:11:18;21.90;39.80
30288;DHT22;17103;48.316;11.558;2022-07-11T10:13:45;21.90;39.40
30288;DHT22;17103;48.316;11.558;2022-07-11T10:16:23;21.90;39.00
30288;DHT22;17103;48.316;11.558;2022-07-11T10:25:06;22.00;40.00
30288;DHT22;17103;48.316;11.558;2022-07-11T10:27:54;22.00;40.00
30288;DHT22;17103;48.316;11.558;2022-07-11T10:30:51;22.10;40.20
30288;DHT22;17103;48.316;11.558;2022-07-11T10:33:21;22.20;40.30
30288;DHT22;17103;48.316;11.558;2022-07-11T10:35:50;22.20;40.20
30288;DHT22;17103;48.316;11.558;2022-07-11T10:38:18;22.30;40.20
30288;DHT22;17103;48.316;11.558;2022-07-11T10:40:57;22.30;40.10
30288;DHT22;17103;48.316;11.558;2022-07-11T10:43:38;22.40;40.00
30288;DHT22;17103;48.316;11.558;2022-07-11T10:46:20;22.40;39.40
30288;DHT22;17103;48.316;11.558;2022-07-11T10:52:04;22.50;39.00
30288;DHT22;17103;48.316;11.558;2022-07-11T10:59:59;22.50;39.70
30288;DHT22;17103;48.316;11.558;2022-07-11T11:02:27;22.50;39.80
30288;DHT22;17103;48.316;11.558;2022-07-11T11:04:54;22.60;39.90
30288;DHT22;17103;48.316;11.558;2022-07-11T11:13:13;22.60;40.20
30288;DHT22;17103;48.316;11.558;2022-07-11T11:23:39;22.80;40.10
30288;DHT22;17103;48.316;11.558;2022-07-11T11:26:13;22.90;40.30
30288;DHT22;17103;48.316;11.558;2022-07-11T11:29:05;23.00;40.20
30288;DHT22;17103;48.316;11.558;2022-07-11T11:31:32;23.10;40.30
30288;DHT22;17103;48.316;11.558;2022-07-11T11:34:00;23.10;40.30
30288;DHT22;17103;48.316;11.558;2022-07-11T11:36:26;23.10;40.20
30288;DHT22;17103;48.316;11.558;2022-07-11T11:38:53;23.20;40.20
30288;DHT22;17103;48.316;11.558;2022-07-11T11:41:24;23.30;40.20
30288;DHT22;17103;48.316;11.558;2022-07-11T11:43:52;23.30;40.20
30288;DHT22;17103;48.316;11.558;2022-07-11T11:46:18;23.40;40.30
30288;DHT22;17103;48.316;11.558;2022-07-11T11:48:44;23.50;40.30
30288;DHT22;17103;48.316;11.558;2022-07-11T11:51:14;23.50;40.30
30288;DHT22;17103;48.316;11.558;2022-07-11T11:53:47;23.50;39.60
30288;DHT22;17103;48.316;11.558;2022-07-11T11:56:23;23.60;39.60
30288;DHT22;17103;48.316;11.558;2022-07-11T11:58:55;23.60;39.60
30288;DHT22;17103;48.316;11.558;2022-07-11T12:01:29;23.70;39.40
30288;DHT22;17103;48.316;11.558;2022-07-11T12:04:00;23.70;39.40
30288;DHT22;17103;48.316;11.558;2022-07-11T12:06:39;23.70;39.10
30288;DHT22;17103;48.316;11.558;2022-07-11T12:09:14;23.70;38.90
30288;DHT22;17103;48.316;11.558;2022-07-11T12:11:49;23.70;38.60
30288;DHT22;17103;48.316;11.558;2022-07-11T12:14:38;23.80;39.40
30288;DHT22;17103;48.316;11.558;2022-07-11T12:17:04;23.80;39.20
30288;DHT22;17103;48.316;11.558;2022-07-11T12:19:34;23.80;39.70
30288;DHT22;17103;48.316;11.558;2022-07-11T12:22:04;23.80;39.70
30288;DHT22;17103;48.316;11.558;2022-07-11T12:24:31;23.90;39.50
30288;DHT22;17103;48.316;11.558;2022-07-11T12:26:59;23.90;39.40
30288;DHT22;17103;48.316;11.558;2022-07-11T12:29:26;24.00;38.90
30288;DHT22;17103;48.316;11.558;2022-07-11T12:31:57;24.10;39.60
30288;DHT22;17103;48.316;11.558;2022-07-11T12:37:06;24.30;38.90
30288;DHT22;17103;48.316;11.558;2022-07-11T12:39:40;24.40;38.60
30288;DHT22;17103;48.316;11.558;2022-07-11T12:45:03;24.60;38.90
30288;DHT22;17103;48.316;11.558;2022-07-11T12:47:42;24.60;38.80
30288;DHT22;17103;48.316;11.558;2022-07-11T12:50:12;24.70;38.70
30288;DHT22;17103;48.316;11.558;2022-07-11T12:52:44;24.80;38.90
30288;DHT22;17103;48.316;11.558;2022-07-11T12:55:33;24.90;38.70
30288;DHT22;17103;48.316;11.558;2022-07-11T12:58:12;25.00;38.00
30288;DHT22;17103;48.316;11.558;2022-07-11T13:00:58;25.00;38.30
30288;DHT22;17103;48.316;11.558;2022-07-11T13:03:34;25.10;38.30
30288;DHT22;17103;48.316;11.558;2022-07-11T13:06:02;25.10;38.40
30288;DHT22;17103;48.316;11.558;2022-07-11T13:08:29;25.20;38.50
30288;DHT22;17103;48.316;11.558;2022-07-11T13:11:17;25.20;38.50
30288;DHT22;17103;48.316;11.558;2022-07-11T13:13:44;25.20;38.50
30288;DHT22;17103;48.316;11.558;2022-07-11T13:16:15;25.30;38.80
30288;DHT22;17103;48.316;11.558;2022-07-11T13:18:42;25.40;38.90
30288;DHT22;17103;48.316;11.558;2022-07-11T13:21:08;25.40;38.40
30288;DHT22;17103;48.316;11.558;2022-07-11T13:23:36;25.50;38.50
30288;DHT22;17103;48.316;11.558;2022-07-11T13:26:04;25.50;37.90
30288;DHT22;17103;48.316;11.558;2022-07-11T13:28:30;25.60;38.50
30288;DHT22;17103;48.316;11.558;2022-07-11T13:30:56;25.60;38.60
30288;DHT22;17103;48.316;11.558;2022-07-11T13:33:23;25.70;38.70
30288;DHT22;17103;48.316;11.558;2022-07-11T13:35:49;25.80;38.60
30288;DHT22;17103;48.316;11.558;2022-07-11T13:38:16;26.00;38.40
30288;DHT22;17103;48.316;11.558;2022-07-11T13:40:42;26.10;38.20
30288;DHT22;17103;48.316;11.558;2022-07-11T13:43:12;26.20;38.20
30288;DHT22;17103;48.316;11.558;2022-07-11T13:45:39;26.20;37.30
30288;DHT22;17103;48.316;11.558;2022-07-11T13:48:06;26.30;37.60
30288;DHT22;17103;48.316;11.558;2022-07-11T13:50:33;26.30;38.00
30288;DHT22;17103;48.316;11.558;2022-07-11T13:52:59;26.30;37.80
30288;DHT22;17103;48.316;11.558;2022-07-11T13:55:26;26.40;38.30
30288;DHT22;17103;48.316;11.558;2022-07-11T13:57:57;26.50;38.20
30288;DHT22;17103;48.316;11.558;2022-07-11T14:00:23;26.70;38.20
30288;DHT22;17103;48.316;11.558;2022-07-11T14:02:50;26.80;37.50
30288;DHT22;17103;48.316;11.558;2022-07-11T14:05:17;26.90;37.50
30288;DHT22;17103;48.316;11.558;2022-07-11T14:07:47;26.90;37.60
30288;DHT22;17103;48.316;11.558;2022-07-11T14:10:14;27.00;37.20
30288;DHT22;17103;48.316;11.558;2022-07-11T14:12:40;27.10;37.30
30288;DHT22;17103;48.316;11.558;2022-07-11T14:15:07;27.10;36.80
30288;DHT22;17103;48.316;11.558;2022-07-11T14:17:35;27.10;36.60
30288;DHT22;17103;48.316;11.558;2022-07-11T14:20:02;27.10;36.50
30288;DHT22;17103;48.316;11.558;2022-07-11T14:22:28;27.10;36.40
30288;DHT22;17103;48.316;11.558;2022-07-11T14:24:54;27.10;36.40
30288;DHT22;17103;48.316;11.558;2022-07-11T14:27:20;27.00;36.10
30288;DHT22;17103;48.316;11.558;2022-07-11T14:29:46;26.90;36.00
30288;DHT22;17103;48.316;11.558;2022-07-11T14:32:15;26.80;35.70
30288;DHT22;17103;48.316;11.558;2022-07-11T14:34:43;26.80;35.70
30288;DHT22;17103;48.316;11.558;2022-07-11T14:37:09;26.70;35.90
30288;DHT22;17103;48.316;11.558;2022-07-11T14:39:35;26.60;36.00
30288;DHT22;17103;48.316;11.558;2022-07-11T14:42:01;26.60;36.30
30288;DHT22;17103;48.316;11.558;2022-07-11T14:44:27;26.50;36.40
30288;DHT22;17103;48.316;11.558;2022-07-11T14:46:53;26.50;36.30
30288;DHT22;17103;48.316;11.558;2022-07-11T14:49:19;26.50;36.00
30288;DHT22;17103;48.316;11.558;2022-07-11T14:51:45;26.50;36.10
30288;DHT22;17103;48.316;11.558;2022-07-11T14:54:11;26.50;35.90
30288;DHT22;17103;48.316;11.558;2022-07-11T14:56:39;26.50;35.80
30288;DHT22;17103;48.316;11.558;2022-07-11T14:59:05;26.50;36.20
30288;DHT22;17103;48.316;11.558;2022-07-11T15:01:33;26.50;36.40
30288;DHT22;17103;48.316;11.558;2022-07-11T15:03:59;26.50;36.40
30288;DHT22;17103;48.316;11.558;2022-07-11T15:06:28;26.50;36.70
30288;DHT22;17103;48.316;11.558;2022-07-11T15:09:13;26.60;36.80
30288;DHT22;17103;48.316;11.558;2022-07-11T15:11:58;26.60;36.80
30288;DHT22;17103;48.316;11.558;2022-07-11T15:14:42;26.60;36.70
30288;DHT22;17103;48.316;11.558;2022-07-11T15:17:08;26.70;36.20
30288;DHT22;17103;48.316;11.558;2022-07-11T15:19:33;26.70;36.00
30288;DHT22;17103;48.316;11.558;2022-07-11T15:21:59;26.70;36.20
30288;DHT22;17103;48.316;11.558;2022-07-11T15:24:25;26.70;36.40
30288;DHT22;17103;48.316;11.558;2022-07-11T15:26:51;26.70;36.30
30288;DHT22;17103;48.316;11.558;2022-07-11T15:29:18;26.70;36.50
30288;DHT22;17103;48.316;11.558;2022-07-11T15:31:45;26.70;36.40
30288;DHT22;17103;48.316;11.558;2022-07-11T15:34:12;26.70;36.40
30288;DHT22;17103;48.316;11.558;2022-07-11T15:36:39;26.70;36.40
30288;DHT22;17103;48.316;11.558;2022-07-11T15:39:05;26.70;36.20
30288;DHT22;17103;48.316;11.558;2022-07-11T15:41:31;26.70;36.40
30288;DHT22;17103;48.316;11.558;2022-07-11T15:43:57;26.70;36.40
30288;DHT22;17103;48.316;11.558;2022-07-11T15:46:23;26.70;36.40
30288;DHT22;17103;48.316;11.558;2022-07-11T15:48:49;26.70;36.20
30288;DHT22;17103;48.316;11.558;2022-07-11T15:51:14;26.80;36.40
30288;DHT22;17103;48.316;11.558;2022-07-11T15:53:40;26.70;36.50
30288;DHT22;17103;48.316;11.558;2022-07-11T15:56:06;26.70;36.30
30288;DHT22;17103;48.316;11.558;2022-07-11T15:58:32;26.70;36.20
30288;DHT22;17103;48.316;11.558;2022-07-11T16:01:01;26.70;36.20
30288;DHT22;17103;48.316;11.558;2022-07-11T16:03:28;26.70;35.90